sensor_id;sensor_type;location;lat;lon;timestamp;P1;durP1;ratioP1;P2;durP2;ratioP2
11807;SDS011;5961;42.640;23.380;2022-08-04T00:00:26;4.97;;;3.57;;
11807;SDS011;5961;42.640;23.380;2022-08-04T00:02:58;4.53;;;3.23;;
11807;SDS011;5961;42.640;23.380;2022-08-04T00:05:34;5.80;;;3.53;;
11807;SDS011;5961;42.640;23.380;2022-08-04T00:08:16;6.10;;;3.70;;
11807;SDS011;5961;42.640;23.380;2022-08-04T00:10:52;3.50;;;3.20;;
11807;SDS011;5961;42.640;23.380;2022-08-04T00:13:23;3.60;;;3.30;;
11807;SDS011;5961;42.640;23.380;2022-08-04T00:15:51;4.03;;;3.60;;
11807;SDS011;5961;42.640;23.380;2022-08-04T00:18:20;4.13;;;3.30;;
11807;SDS011;5961;42.640;23.380;2022-08-04T00:20:52;4.07;;;3.20;;
11807;SDS011;5961;42.640;23.380;2022-08-04T00:23:22;4.03;;;3.63;;
11807;SDS011;5961;42.640;23.380;2022-08-04T00:25:52;3.77;;;3.40;;
11807;SDS011;5961;42.640;23.380;2022-08-04T00:28:19;6.27;;;3.63;;
11807;SDS011;5961;42.640;23.380;2022-08-04T00:30:48;7.73;;;4.00;;
11807;SDS011;5961;42.640;23.380;2022-08-04T00:33:17;3.83;;;3.53;;
11807;SDS011;5961;42.640;23.380;2022-08-04T00:35:45;4.83;;;3.83;;
11807;SDS011;5961;42.640;23.380;2022-08-04T00:38:13;5.43;;;3.70;;
11807;SDS011;5961;42.640;23.380;2022-08-04T00:40:42;4.27;;;3.87;;
11807;SDS011;5961;42.640;23.380;2022-08-04T00:43:18;4.77;;;3.50;;
11807;SDS011;5961;42.640;23.380;2022-08-04T00:49:02;4.00;;;3.60;;
11807;SDS011;5961;42.640;23.380;2022-08-04T00:51:42;5.07;;;3.87;;
11807;SDS011;5961;42.640;23.380;2022-08-04T00:54:15;3.93;;;3.63;;
11807;SDS011;5961;42.640;23.380;2022-08-04T00:59:54;4.20;;;3.90;;
11807;SDS011;5961;42.640;23.380;2022-08-04T01:02:34;7.13;;;3.50;;
11807;SDS011;5961;42.640;23.380;2022-08-04T01:05:04;5.83;;;3.70;;
11807;SDS011;5961;42.640;23.380;2022-08-04T01:07:45;4.27;;;3.77;;
11807;SDS011;5961;42.640;23.380;2022-08-04T01:10:29;4.97;;;4.30;;
11807;SDS011;5961;42.640;23.380;2022-08-04T01:13:16;4.47;;;3.80;;
11807;SDS011;5961;42.640;23.380;2022-08-04T01:15:53;5.77;;;4.53;;
11807;SDS011;5961;42.640;23.380;2022-08-04T01:18:29;4.57;;;3.83;;
11807;SDS011;5961;42.640;23.380;2022-08-04T01:21:16;4.47;;;4.03;;
11807;SDS011;5961;42.640;23.380;2022-08-04T01:24:04;4.23;;;3.80;;
11807;SDS011;5961;42.640;23.380;2022-08-04T01:26:49;4.73;;;3.57;;
11807;SDS011;5961;42.640;23.380;2022-08-04T01:29:22;7.43;;;4.33;;
11807;SDS011;5961;42.640;23.380;2022-08-04T01:31:58;6.43;;;5.43;;
11807;SDS011;5961;42.640;23.380;2022-08-04T01:34:27;8.00;;;6.07;;
11807;SDS011;5961;42.640;23.380;2022-08-04T01:36:57;9.17;;;5.93;;
11807;SDS011;5961;42.640;23.380;2022-08-04T01:39:31;7.03;;;5.70;;
11807;SDS011;5961;42.640;23.380;2022-08-04T01:42:07;4.70;;;4.23;;
11807;SDS011;5961;42.640;23.380;2022-08-04T01:44:37;5.73;;;4.63;;
11807;SDS011;5961;42.640;23.380;2022-08-04T01:47:06;4.87;;;4.33;;
11807;SDS011;5961;42.640;23.380;2022-08-04T01:49:35;6.27;;;4.47;;
11807;SDS011;5961;42.640;23.380;2022-08-04T01:52:03;4.30;;;3.90;;
11807;SDS011;5961;42.640;23.380;2022-08-04T01:54:32;3.77;;;3.47;;
11807;SDS011;5961;42.640;23.380;2022-08-04T01:57:04;3.70;;;3.40;;
11807;SDS011;5961;42.640;23.380;2022-08-04T01:59:31;4.00;;;3.37;;
11807;SDS011;5961;42.640;23.380;2022-08-04T02:02:03;4.77;;;3.70;;
11807;SDS011;5961;42.640;23.380;2022-08-04T02:04:30;4.23;;;3.83;;
11807;SDS011;5961;42.640;23.380;2022-08-04T02:07:01;4.20;;;3.80;;
11807;SDS011;5961;42.640;23.380;2022-08-04T02:09:37;4.20;;;3.80;;
11807;SDS011;5961;42.640;23.380;2022-08-04T02:12:12;4.13;;;3.73;;
11807;SDS011;5961;42.640;23.380;2022-08-04T02:14:52;4.27;;;3.60;;
11807;SDS011;5961;42.640;23.380;2022-08-04T02:17:25;6.60;;;3.80;;
11807;SDS011;5961;42.640;23.380;2022-08-04T02:20:00;3.73;;;3.43;;
11807;SDS011;5961;42.640;23.380;2022-08-04T02:22:32;5.90;;;4.20;;
11807;SDS011;5961;42.640;23.380;2022-08-04T02:25:02;4.00;;;3.57;;
11807;SDS011;5961;42.640;23.380;2022-08-04T02:27:36;4.53;;;3.87;;
11807;SDS011;5961;42.640;23.380;2022-08-04T02:30:13;6.33;;;4.40;;
11807;SDS011;5961;42.640;23.380;2022-08-04T02:32:41;5.60;;;4.10;;
11807;SDS011;5961;42.640;23.380;2022-08-04T02:35:12;4.23;;;3.83;;
11807;SDS011;5961;42.640;23.380;2022-08-04T02:37:41;8.63;;;4.20;;
11807;SDS011;5961;42.640;23.380;2022-08-04T02:40:13;5.50;;;3.60;;
11807;SDS011;5961;42.640;23.380;2022-08-04T02:42:46;4.17;;;3.77;;
11807;SDS011;5961;42.640;23.380;2022-08-04T02:45:13;6.03;;;3.90;;
11807;SDS011;5961;42.640;23.380;2022-08-04T02:47:46;4.10;;;3.60;;
11807;SDS011;5961;42.640;23.380;2022-08-04T02:50:15;6.70;;;4.00;;
11807;SDS011;5961;42.640;23.380;2022-08-04T02:52:44;4.90;;;3.97;;
11807;SDS011;5961;42.640;23.380;2022-08-04T02:55:14;4.13;;;3.83;;
11807;SDS011;5961;42.640;23.380;2022-08-04T02:57:42;4.47;;;3.90;;
11807;SDS011;5961;42.640;23.380;2022-08-04T03:00:14;4.53;;;4.13;;
11807;SDS011;5961;42.640;23.380;2022-08-04T03:02:49;8.77;;;4.00;;
11807;SDS011;5961;42.640;23.380;2022-08-04T03:05:26;4.43;;;4.03;;
11807;SDS011;5961;42.640;23.380;2022-08-04T03:08:16;4.23;;;3.63;;
11807;SDS011;5961;42.640;23.380;2022-08-04T03:14:00;5.33;;;3.93;;
11807;SDS011;5961;42.640;23.380;2022-08-04T03:20:00;6.43;;;3.87;;
11807;SDS011;5961;42.640;23.380;2022-08-04T03:23:03;4.30;;;3.90;;
11807;SDS011;5961;42.640;23.380;2022-08-04T03:32:06;4.27;;;3.87;;
11807;SDS011;5961;42.640;23.380;2022-08-04T03:35:03;5.97;;;4.10;;
11807;SDS011;5961;42.640;23.380;2022-08-04T03:37:57;6.03;;;4.10;;
11807;SDS011;5961;42.640;23.380;2022-08-04T03:40:56;4.67;;;4.20;;
11807;SDS011;5961;42.640;23.380;2022-08-04T03:43:39;5.00;;;4.20;;
11807;SDS011;5961;42.640;23.380;2022-08-04T03:52:17;4.50;;;4.10;;
11807;SDS011;5961;42.640;23.380;2022-08-04T03:55:35;3.73;;;3.50;;
11807;SDS011;5961;42.640;23.380;2022-08-04T03:58:16;4.53;;;4.13;;
11807;SDS011;5961;42.640;23.380;2022-08-04T04:01:06;6.30;;;4.77;;
11807;SDS011;5961;42.640;23.380;2022-08-04T04:06:55;5.30;;;4.07;;
11807;SDS011;5961;42.640;23.380;2022-08-04T04:10:00;7.47;;;3.90;;
11807;SDS011;5961;42.640;23.380;2022-08-04T04:15:50;6.57;;;4.57;;
11807;SDS011;5961;42.640;23.380;2022-08-04T04:18:40;6.93;;;5.00;;
11807;SDS011;5961;42.640;23.380;2022-08-04T04:21:25;9.07;;;6.57;;
11807;SDS011;5961;42.640;23.380;2022-08-04T04:24:01;7.57;;;4.37;;
11807;SDS011;5961;42.640;23.380;2022-08-04T04:26:50;4.83;;;3.90;;
11807;SDS011;5961;42.640;23.380;2022-08-04T04:32:22;6.37;;;4.70;;
11807;SDS011;5961;42.640;23.380;2022-08-04T04:35:05;4.63;;;4.13;;
11807;SDS011;5961;42.640;23.380;2022-08-04T04:37:54;5.70;;;4.73;;
11807;SDS011;5961;42.640;23.380;2022-08-04T04:40:33;5.40;;;4.53;;
11807;SDS011;5961;42.640;23.380;2022-08-04T04:43:18;6.93;;;4.40;;
11807;SDS011;5961;42.640;23.380;2022-08-04T04:46:02;6.57;;;4.40;;
11807;SDS011;5961;42.640;23.380;2022-08-04T04:48:35;5.23;;;4.63;;
11807;SDS011;5961;42.640;23.380;2022-08-04T04:51:09;4.87;;;4.33;;
11807;SDS011;5961;42.640;23.380;2022-08-04T04:53:44;6.57;;;4.50;;
11807;SDS011;5961;42.640;23.380;2022-08-04T04:56:18;5.13;;;4.50;;
11807;SDS011;5961;42.640;23.380;2022-08-04T04:58:54;5.33;;;4.20;;
11807;SDS011;5961;42.640;23.380;2022-08-04T05:01:31;9.83;;;4.47;;
11807;SDS011;5961;42.640;23.380;2022-08-04T05:04:23;6.13;;;4.90;;
11807;SDS011;5961;42.640;23.380;2022-08-04T05:10:00;7.07;;;4.77;;
11807;SDS011;5961;42.640;23.380;2022-08-04T05:12:44;6.90;;;5.80;;
11807;SDS011;5961;42.640;23.380;2022-08-04T05:15:28;6.20;;;4.83;;
11807;SDS011;5961;42.640;23.380;2022-08-04T05:17:59;7.90;;;4.80;;
11807;SDS011;5961;42.640;23.380;2022-08-04T05:20:32;6.47;;;5.07;;
11807;SDS011;5961;42.640;23.380;2022-08-04T05:23:01;8.43;;;6.03;;
11807;SDS011;5961;42.640;23.380;2022-08-04T05:25:34;7.13;;;5.30;;
11807;SDS011;5961;42.640;23.380;2022-08-04T05:28:05;5.67;;;4.53;;
11807;SDS011;5961;42.640;23.380;2022-08-04T05:30:39;9.03;;;5.20;;
11807;SDS011;5961;42.640;23.380;2022-08-04T05:33:12;10.17;;;5.47;;
11807;SDS011;5961;42.640;23.380;2022-08-04T05:35:42;10.83;;;5.87;;
11807;SDS011;5961;42.640;23.380;2022-08-04T05:38:13;7.00;;;5.00;;
11807;SDS011;5961;42.640;23.380;2022-08-04T05:40:43;5.83;;;5.17;;
11807;SDS011;5961;42.640;23.380;2022-08-04T05:43:11;7.60;;;5.50;;
11807;SDS011;5961;42.640;23.380;2022-08-04T05:45:40;7.40;;;5.10;;
11807;SDS011;5961;42.640;23.380;2022-08-04T05:48:08;8.73;;;5.00;;
11807;SDS011;5961;42.640;23.380;2022-08-04T05:50:36;5.07;;;4.37;;
11807;SDS011;5961;42.640;23.380;2022-08-04T05:53:04;5.90;;;5.30;;
11807;SDS011;5961;42.640;23.380;2022-08-04T05:55:34;8.07;;;5.03;;
11807;SDS011;5961;42.640;23.380;2022-08-04T05:58:01;5.73;;;5.03;;
11807;SDS011;5961;42.640;23.380;2022-08-04T06:00:28;5.97;;;5.07;;
11807;SDS011;5961;42.640;23.380;2022-08-04T06:02:58;6.47;;;5.43;;
11807;SDS011;5961;42.640;23.380;2022-08-04T06:05:27;11.53;;;5.60;;
11807;SDS011;5961;42.640;23.380;2022-08-04T06:07:54;8.80;;;5.90;;
11807;SDS011;5961;42.640;23.380;2022-08-04T06:10:21;6.43;;;5.80;;
11807;SDS011;5961;42.640;23.380;2022-08-04T06:12:51;9.17;;;5.83;;
11807;SDS011;5961;42.640;23.380;2022-08-04T06:15:20;10.33;;;6.10;;
11807;SDS011;5961;42.640;23.380;2022-08-04T06:17:52;8.33;;;5.70;;
11807;SDS011;5961;42.640;23.380;2022-08-04T06:20:24;8.27;;;6.40;;
11807;SDS011;5961;42.640;23.380;2022-08-04T06:22:56;9.83;;;6.50;;
11807;SDS011;5961;42.640;23.380;2022-08-04T06:25:28;6.67;;;5.97;;
11807;SDS011;5961;42.640;23.380;2022-08-04T06:27:56;7.07;;;5.30;;
11807;SDS011;5961;42.640;23.380;2022-08-04T06:30:24;7.97;;;5.77;;
11807;SDS011;5961;42.640;23.380;2022-08-04T06:32:52;10.40;;;5.50;;
11807;SDS011;5961;42.640;23.380;2022-08-04T06:35:26;6.32;;;4.68;;
11807;SDS011;5961;42.640;23.380;2022-08-04T06:37:55;9.35;;;5.43;;
11807;SDS011;5961;42.640;23.380;2022-08-04T06:40:23;8.52;;;6.30;;
11807;SDS011;5961;42.640;23.380;2022-08-04T06:42:50;9.18;;;6.60;;
11807;SDS011;5961;42.640;23.380;2022-08-04T06:45:19;6.40;;;5.80;;
11807;SDS011;5961;42.640;23.380;2022-08-04T06:47:46;8.95;;;6.40;;
11807;SDS011;5961;42.640;23.380;2022-08-04T06:50:14;9.50;;;5.65;;
11807;SDS011;5961;42.640;23.380;2022-08-04T06:52:44;12.43;;;6.40;;
11807;SDS011;5961;42.640;23.380;2022-08-04T06:55:11;8.20;;;6.85;;
11807;SDS011;5961;42.640;23.380;2022-08-04T06:57:38;7.93;;;6.13;;
11807;SDS011;5961;42.640;23.380;2022-08-04T07:00:07;7.28;;;5.82;;
11807;SDS011;5961;42.640;23.380;2022-08-04T07:02:38;11.73;;;8.52;;
11807;SDS011;5961;42.640;23.380;2022-08-04T07:05:07;9.70;;;8.07;;
11807;SDS011;5961;42.640;23.380;2022-08-04T07:07:35;10.05;;;6.30;;
11807;SDS011;5961;42.640;23.380;2022-08-04T07:10:05;10.35;;;6.25;;
11807;SDS011;5961;42.640;23.380;2022-08-04T07:12:33;11.70;;;8.75;;
11807;SDS011;5961;42.640;23.380;2022-08-04T07:15:01;10.15;;;6.80;;
11807;SDS011;5961;42.640;23.380;2022-08-04T07:17:28;8.07;;;6.80;;
11807;SDS011;5961;42.640;23.380;2022-08-04T07:19:56;10.60;;;6.95;;
11807;SDS011;5961;42.640;23.380;2022-08-04T07:22:23;11.63;;;7.82;;
11807;SDS011;5961;42.640;23.380;2022-08-04T07:24:53;9.15;;;6.55;;
11807;SDS011;5961;42.640;23.380;2022-08-04T07:27:22;12.02;;;8.85;;
11807;SDS011;5961;42.640;23.380;2022-08-04T07:29:49;9.30;;;6.38;;
11807;SDS011;5961;42.640;23.380;2022-08-04T07:32:16;7.10;;;6.25;;
11807;SDS011;5961;42.640;23.380;2022-08-04T07:34:46;7.45;;;6.22;;
11807;SDS011;5961;42.640;23.380;2022-08-04T07:37:14;9.95;;;6.57;;
11807;SDS011;5961;42.640;23.380;2022-08-04T07:39:40;7.30;;;6.25;;
11807;SDS011;5961;42.640;23.380;2022-08-04T07:42:07;9.52;;;6.93;;
11807;SDS011;5961;42.640;23.380;2022-08-04T07:44:36;11.95;;;6.93;;
11807;SDS011;5961;42.640;23.380;2022-08-04T07:47:04;7.05;;;6.20;;
11807;SDS011;5961;42.640;23.380;2022-08-04T07:49:32;8.10;;;7.18;;
11807;SDS011;5961;42.640;23.380;2022-08-04T07:52:00;13.95;;;7.57;;
11807;SDS011;5961;42.640;23.380;2022-08-04T07:54:27;12.07;;;6.85;;
11807;SDS011;5961;42.640;23.380;2022-08-04T07:56:54;14.77;;;7.10;;
11807;SDS011;5961;42.640;23.380;2022-08-04T07:59:21;12.35;;;6.97;;
11807;SDS011;5961;42.640;23.380;2022-08-04T08:01:50;13.38;;;7.63;;
11807;SDS011;5961;42.640;23.380;2022-08-04T08:04:18;11.00;;;6.82;;
11807;SDS011;5961;42.640;23.380;2022-08-04T08:06:45;14.18;;;7.15;;
11807;SDS011;5961;42.640;23.380;2022-08-04T08:09:13;9.73;;;6.53;;
11807;SDS011;5961;42.640;23.380;2022-08-04T08:11:41;8.70;;;6.80;;
11807;SDS011;5961;42.640;23.380;2022-08-04T08:14:08;11.77;;;7.55;;
11807;SDS011;5961;42.640;23.380;2022-08-04T08:16:35;13.23;;;7.70;;
11807;SDS011;5961;42.640;23.380;2022-08-04T08:19:04;10.68;;;7.53;;
11807;SDS011;5961;42.640;23.380;2022-08-04T08:21:31;10.63;;;7.80;;
11807;SDS011;5961;42.640;23.380;2022-08-04T08:23:59;9.00;;;6.97;;
11807;SDS011;5961;42.640;23.380;2022-08-04T08:26:26;12.45;;;7.13;;
11807;SDS011;5961;42.640;23.380;2022-08-04T08:28:54;12.95;;;6.90;;
11807;SDS011;5961;42.640;23.380;2022-08-04T08:31:21;9.65;;;6.43;;
11807;SDS011;5961;42.640;23.380;2022-08-04T08:33:47;8.25;;;6.65;;
11807;SDS011;5961;42.640;23.380;2022-08-04T08:36:18;8.45;;;5.95;;
11807;SDS011;5961;42.640;23.380;2022-08-04T08:38:52;9.35;;;6.43;;
11807;SDS011;5961;42.640;23.380;2022-08-04T08:44:33;7.75;;;5.97;;
11807;SDS011;5961;42.640;23.380;2022-08-04T08:47:29;6.70;;;4.80;;
11807;SDS011;5961;42.640;23.380;2022-08-04T08:50:24;6.13;;;5.40;;
11807;SDS011;5961;42.640;23.380;2022-08-04T08:53:15;8.02;;;5.35;;
11807;SDS011;5961;42.640;23.380;2022-08-04T08:55:57;7.45;;;5.40;;
11807;SDS011;5961;42.640;23.380;2022-08-04T08:58:40;7.13;;;5.25;;
11807;SDS011;5961;42.640;23.380;2022-08-04T09:01:25;7.85;;;5.22;;
11807;SDS011;5961;42.640;23.380;2022-08-04T09:04:22;9.40;;;4.97;;
11807;SDS011;5961;42.640;23.380;2022-08-04T09:07:26;9.50;;;5.20;;
11807;SDS011;5961;42.640;23.380;2022-08-04T09:10:09;6.15;;;4.53;;
11807;SDS011;5961;42.640;23.380;2022-08-04T09:12:44;4.95;;;4.45;;
11807;SDS011;5961;42.640;23.380;2022-08-04T09:15:17;6.28;;;4.45;;
11807;SDS011;5961;42.640;23.380;2022-08-04T09:17:54;5.32;;;4.65;;
11807;SDS011;5961;42.640;23.380;2022-08-04T09:20:28;8.00;;;4.65;;
11807;SDS011;5961;42.640;23.380;2022-08-04T09:23:05;5.68;;;4.75;;
11807;SDS011;5961;42.640;23.380;2022-08-04T09:25:41;5.50;;;5.00;;
11807;SDS011;5961;42.640;23.380;2022-08-04T09:28:16;6.13;;;4.65;;
11807;SDS011;5961;42.640;23.380;2022-08-04T09:30:49;5.43;;;4.90;;
11807;SDS011;5961;42.640;23.380;2022-08-04T09:33:23;5.10;;;4.70;;
11807;SDS011;5961;42.640;23.380;2022-08-04T09:36:00;6.15;;;4.97;;
11807;SDS011;5961;42.640;23.380;2022-08-04T09:38:32;6.15;;;4.95;;
11807;SDS011;5961;42.640;23.380;2022-08-04T09:41:09;6.57;;;4.15;;
11807;SDS011;5961;42.640;23.380;2022-08-04T09:43:48;5.57;;;3.70;;
11807;SDS011;5961;42.640;23.380;2022-08-04T09:46:22;4.15;;;3.83;;
11807;SDS011;5961;42.640;23.380;2022-08-04T09:48:52;7.20;;;3.92;;
11807;SDS011;5961;42.640;23.380;2022-08-04T09:51:25;7.47;;;4.38;;
11807;SDS011;5961;42.640;23.380;2022-08-04T09:54:05;5.18;;;4.30;;
11807;SDS011;5961;42.640;23.380;2022-08-04T09:56:40;4.10;;;3.80;;
11807;SDS011;5961;42.640;23.380;2022-08-04T09:59:17;6.50;;;4.28;;
11807;SDS011;5961;42.640;23.380;2022-08-04T10:01:50;7.22;;;4.22;;
11807;SDS011;5961;42.640;23.380;2022-08-04T10:04:19;8.23;;;4.53;;
11807;SDS011;5961;42.640;23.380;2022-08-04T10:07:02;5.35;;;3.65;;
11807;SDS011;5961;42.640;23.380;2022-08-04T10:09:51;6.60;;;4.30;;
11807;SDS011;5961;42.640;23.380;2022-08-04T10:12:34;5.57;;;3.83;;
11807;SDS011;5961;42.640;23.380;2022-08-04T10:15:09;4.60;;;3.90;;
11807;SDS011;5961;42.640;23.380;2022-08-04T10:17:44;4.80;;;4.15;;
11807;SDS011;5961;42.640;23.380;2022-08-04T10:20:49;7.78;;;4.55;;
11807;SDS011;5961;42.640;23.380;2022-08-04T10:23:26;7.30;;;4.55;;
11807;SDS011;5961;42.640;23.380;2022-08-04T10:26:03;5.55;;;5.05;;
11807;SDS011;5961;42.640;23.380;2022-08-04T10:28:42;7.13;;;4.93;;
11807;SDS011;5961;42.640;23.380;2022-08-04T10:31:13;9.13;;;4.85;;
11807;SDS011;5961;42.640;23.380;2022-08-04T10:33:48;7.15;;;4.82;;
11807;SDS011;5961;42.640;23.380;2022-08-04T10:36:20;5.30;;;4.75;;
11807;SDS011;5961;42.640;23.380;2022-08-04T10:38:50;8.48;;;4.90;;
11807;SDS011;5961;42.640;23.380;2022-08-04T10:41:34;9.07;;;5.10;;
11807;SDS011;5961;42.640;23.380;2022-08-04T10:44:15;6.07;;;5.47;;
11807;SDS011;5961;42.640;23.380;2022-08-04T10:46:50;7.97;;;4.80;;
11807;SDS011;5961;42.640;23.380;2022-08-04T10:49:21;9.00;;;5.40;;
11807;SDS011;5961;42.640;23.380;2022-08-04T10:51:50;6.90;;;4.65;;
11807;SDS011;5961;42.640;23.380;2022-08-04T10:54:22;5.13;;;4.60;;
11807;SDS011;5961;42.640;23.380;2022-08-04T10:56:55;4.47;;;4.07;;
11807;SDS011;5961;42.640;23.380;2022-08-04T10:59:29;8.80;;;4.50;;
11807;SDS011;5961;42.640;23.380;2022-08-04T11:02:06;6.45;;;4.57;;
11807;SDS011;5961;42.640;23.380;2022-08-04T11:04:56;8.80;;;4.38;;
11807;SDS011;5961;42.640;23.380;2022-08-04T11:07:31;6.55;;;4.43;;
11807;SDS011;5961;42.640;23.380;2022-08-04T11:10:00;5.35;;;4.13;;
11807;SDS011;5961;42.640;23.380;2022-08-04T11:12:27;4.10;;;3.60;;
11807;SDS011;5961;42.640;23.380;2022-08-04T11:14:57;3.65;;;3.20;;
11807;SDS011;5961;42.640;23.380;2022-08-04T11:17:30;3.63;;;3.33;;
11807;SDS011;5961;42.640;23.380;2022-08-04T11:20:01;6.68;;;3.60;;
11807;SDS011;5961;42.640;23.380;2022-08-04T11:22:37;7.03;;;5.30;;
11807;SDS011;5961;42.640;23.380;2022-08-04T11:25:11;3.97;;;3.40;;
11807;SDS011;5961;42.640;23.380;2022-08-04T11:27:46;4.85;;;3.65;;
11807;SDS011;5961;42.640;23.380;2022-08-04T11:30:20;6.07;;;4.22;;
11807;SDS011;5961;42.640;23.380;2022-08-04T11:32:52;5.47;;;3.55;;
11807;SDS011;5961;42.640;23.380;2022-08-04T11:35:28;9.10;;;3.85;;
11807;SDS011;5961;42.640;23.380;2022-08-04T11:38:03;4.47;;;4.07;;
11807;SDS011;5961;42.640;23.380;2022-08-04T11:40:38;6.50;;;3.60;;
11807;SDS011;5961;42.640;23.380;2022-08-04T11:43:08;3.72;;;3.42;;
11807;SDS011;5961;42.640;23.380;2022-08-04T11:45:44;5.53;;;3.60;;
11807;SDS011;5961;42.640;23.380;2022-08-04T11:48:16;3.90;;;3.30;;
11807;SDS011;5961;42.640;23.380;2022-08-04T11:50:49;3.95;;;3.65;;
11807;SDS011;5961;42.640;23.380;2022-08-04T11:53:19;5.38;;;4.07;;
11807;SDS011;5961;42.640;23.380;2022-08-04T11:55:49;5.10;;;3.67;;
11807;SDS011;5961;42.640;23.380;2022-08-04T11:58:19;5.32;;;3.80;;
11807;SDS011;5961;42.640;23.380;2022-08-04T12:00:52;5.78;;;3.50;;
11807;SDS011;5961;42.640;23.380;2022-08-04T12:03:26;4.28;;;3.42;;
11807;SDS011;5961;42.640;23.380;2022-08-04T12:06:06;4.28;;;3.88;;
11807;SDS011;5961;42.640;23.380;2022-08-04T12:11:32;4.93;;;3.97;;
11807;SDS011;5961;42.640;23.380;2022-08-04T12:14:09;5.32;;;3.50;;
11807;SDS011;5961;42.640;23.380;2022-08-04T12:16:51;3.90;;;3.60;;
11807;SDS011;5961;42.640;23.380;2022-08-04T12:19:25;4.22;;;3.83;;
11807;SDS011;5961;42.640;23.380;2022-08-04T12:21:57;9.52;;;4.10;;
11807;SDS011;5961;42.640;23.380;2022-08-04T12:24:27;3.95;;;3.65;;
11807;SDS011;5961;42.640;23.380;2022-08-04T12:27:01;6.45;;;3.83;;
11807;SDS011;5961;42.640;23.380;2022-08-04T12:29:36;5.25;;;3.65;;
11807;SDS011;5961;42.640;23.380;2022-08-04T12:32:10;4.05;;;3.70;;
11807;SDS011;5961;42.640;23.380;2022-08-04T12:34:45;5.43;;;3.42;;
11807;SDS011;5961;42.640;23.380;2022-08-04T12:37:22;4.65;;;3.70;;
11807;SDS011;5961;42.640;23.380;2022-08-04T12:39:54;5.18;;;3.70;;
11807;SDS011;5961;42.640;23.380;2022-08-04T12:42:28;3.63;;;3.40;;
11807;SDS011;5961;42.640;23.380;2022-08-04T12:45:06;3.80;;;3.50;;
11807;SDS011;5961;42.640;23.380;2022-08-04T12:47:37;4.30;;;3.90;;
11807;SDS011;5961;42.640;23.380;2022-08-04T12:50:05;4.03;;;3.28;;
11807;SDS011;5961;42.640;23.380;2022-08-04T12:52:40;5.03;;;4.20;;
11807;SDS011;5961;42.640;23.380;2022-08-04T12:55:09;4.10;;;3.80;;
11807;SDS011;5961;42.640;23.380;2022-08-04T12:57:37;3.60;;;3.30;;
11807;SDS011;5961;42.640;23.380;2022-08-04T13:00:07;3.97;;;3.67;;
11807;SDS011;5961;42.640;23.380;2022-08-04T13:02:36;4.60;;;3.72;;
11807;SDS011;5961;42.640;23.380;2022-08-04T13:05:06;6.40;;;4.50;;
11807;SDS011;5961;42.640;23.380;2022-08-04T13:07:37;4.72;;;3.70;;
11807;SDS011;5961;42.640;23.380;2022-08-04T13:10:10;4.18;;;3.50;;
11807;SDS011;5961;42.640;23.380;2022-08-04T13:12:37;4.22;;;3.83;;
11807;SDS011;5961;42.640;23.380;2022-08-04T13:15:08;6.13;;;3.67;;
11807;SDS011;5961;42.640;23.380;2022-08-04T13:17:44;19.45;;;5.10;;
11807;SDS011;5961;42.640;23.380;2022-08-04T13:20:16;8.25;;;3.80;;
11807;SDS011;5961;42.640;23.380;2022-08-04T13:22:49;4.30;;;3.90;;
11807;SDS011;5961;42.640;23.380;2022-08-04T13:25:16;4.93;;;3.85;;
11807;SDS011;5961;42.640;23.380;2022-08-04T13:27:43;10.93;;;4.57;;
11807;SDS011;5961;42.640;23.380;2022-08-04T13:30:12;6.80;;;4.15;;
11807;SDS011;5961;42.640;23.380;2022-08-04T13:32:45;4.70;;;4.10;;
11807;SDS011;5961;42.640;23.380;2022-08-04T13:35:12;4.13;;;3.72;;
11807;SDS011;5961;42.640;23.380;2022-08-04T13:37:40;4.18;;;3.78;;
11807;SDS011;5961;42.640;23.380;2022-08-04T13:40:09;4.35;;;3.95;;
11807;SDS011;5961;42.640;23.380;2022-08-04T13:42:39;10.95;;;4.22;;
11807;SDS011;5961;42.640;23.380;2022-08-04T13:45:11;4.15;;;3.75;;
11807;SDS011;5961;42.640;23.380;2022-08-04T13:47:40;5.32;;;3.90;;
11807;SDS011;5961;42.640;23.380;2022-08-04T13:50:14;6.63;;;4.55;;
11807;SDS011;5961;42.640;23.380;2022-08-04T13:52:43;4.10;;;3.80;;
11807;SDS011;5961;42.640;23.380;2022-08-04T13:55:17;4.45;;;4.00;;
11807;SDS011;5961;42.640;23.380;2022-08-04T13:57:46;5.32;;;4.00;;
11807;SDS011;5961;42.640;23.380;2022-08-04T14:00:18;7.15;;;3.70;;
11807;SDS011;5961;42.640;23.380;2022-08-04T14:02:48;4.57;;;3.75;;
11807;SDS011;5961;42.640;23.380;2022-08-04T14:05:25;6.68;;;4.03;;
11807;SDS011;5961;42.640;23.380;2022-08-04T14:07:53;4.68;;;4.28;;
11807;SDS011;5961;42.640;23.380;2022-08-04T14:10:21;4.18;;;3.88;;
11807;SDS011;5961;42.640;23.380;2022-08-04T14:12:49;5.10;;;3.97;;
11807;SDS011;5961;42.640;23.380;2022-08-04T14:15:29;3.95;;;3.60;;
11807;SDS011;5961;42.640;23.380;2022-08-04T14:18:15;4.28;;;3.97;;
11807;SDS011;5961;42.640;23.380;2022-08-04T14:20:58;4.20;;;3.80;;
11807;SDS011;5961;42.640;23.380;2022-08-04T14:23:36;7.00;;;3.75;;
11807;SDS011;5961;42.640;23.380;2022-08-04T14:26:12;4.90;;;4.40;;
11807;SDS011;5961;42.640;23.380;2022-08-04T14:28:40;4.30;;;3.90;;
11807;SDS011;5961;42.640;23.380;2022-08-04T14:31:08;4.95;;;4.03;;
11807;SDS011;5961;42.640;23.380;2022-08-04T14:33:36;6.15;;;3.80;;
11807;SDS011;5961;42.640;23.380;2022-08-04T14:36:05;5.28;;;4.20;;
11807;SDS011;5961;42.640;23.380;2022-08-04T14:38:43;4.80;;;4.30;;
11807;SDS011;5961;42.640;23.380;2022-08-04T14:41:12;5.40;;;4.93;;
11807;SDS011;5961;42.640;23.380;2022-08-04T14:43:40;5.72;;;5.22;;
11807;SDS011;5961;42.640;23.380;2022-08-04T14:46:09;8.35;;;5.60;;
11807;SDS011;5961;42.640;23.380;2022-08-04T14:48:37;7.68;;;5.88;;
11807;SDS011;5961;42.640;23.380;2022-08-04T14:51:06;5.47;;;4.25;;
11807;SDS011;5961;42.640;23.380;2022-08-04T14:53:39;4.60;;;4.03;;
11807;SDS011;5961;42.640;23.380;2022-08-04T14:56:12;4.68;;;3.88;;
11807;SDS011;5961;42.640;23.380;2022-08-04T14:58:39;4.28;;;3.90;;
11807;SDS011;5961;42.640;23.380;2022-08-04T15:01:07;4.30;;;3.90;;
11807;SDS011;5961;42.640;23.380;2022-08-04T15:03:35;4.68;;;3.88;;
11807;SDS011;5961;42.640;23.380;2022-08-04T15:06:06;4.35;;;3.95;;
11807;SDS011;5961;42.640;23.380;2022-08-04T15:08:33;6.30;;;4.95;;
11807;SDS011;5961;42.640;23.380;2022-08-04T15:11:00;6.90;;;4.72;;
11807;SDS011;5961;42.640;23.380;2022-08-04T15:13:28;8.00;;;4.20;;
11807;SDS011;5961;42.640;23.380;2022-08-04T15:15:55;6.38;;;3.90;;
11807;SDS011;5961;42.640;23.380;2022-08-04T15:18:23;8.13;;;4.47;;
11807;SDS011;5961;42.640;23.380;2022-08-04T15:20:54;7.88;;;4.00;;
11807;SDS011;5961;42.640;23.380;2022-08-04T15:23:24;4.20;;;3.80;;
11807;SDS011;5961;42.640;23.380;2022-08-04T15:25:51;5.63;;;4.10;;
11807;SDS011;5961;42.640;23.380;2022-08-04T15:28:24;6.30;;;3.90;;
11807;SDS011;5961;42.640;23.380;2022-08-04T15:30:52;4.43;;;4.00;;
11807;SDS011;5961;42.640;23.380;2022-08-04T15:33:20;5.30;;;4.80;;
11807;SDS011;5961;42.640;23.380;2022-08-04T15:35:49;7.20;;;4.28;;
11807;SDS011;5961;42.640;23.380;2022-08-04T15:38:22;4.78;;;4.03;;
11807;SDS011;5961;42.640;23.380;2022-08-04T15:40:55;6.03;;;4.03;;
11807;SDS011;5961;42.640;23.380;2022-08-04T15:43:48;4.00;;;3.70;;
11807;SDS011;5961;42.640;23.380;2022-08-04T15:46:30;5.63;;;4.03;;
11807;SDS011;5961;42.640;23.380;2022-08-04T15:49:32;5.00;;;4.47;;
11807;SDS011;5961;42.640;23.380;2022-08-04T15:51:59;7.95;;;4.18;;
11807;SDS011;5961;42.640;23.380;2022-08-04T15:54:29;5.38;;;4.22;;
11807;SDS011;5961;42.640;23.380;2022-08-04T15:56:55;4.28;;;3.92;;
11807;SDS011;5961;42.640;23.380;2022-08-04T16:05:33;3.92;;;3.63;;
11807;SDS011;5961;42.640;23.380;2022-08-04T16:08:09;6.53;;;4.47;;
11807;SDS011;5961;42.640;23.380;2022-08-04T16:10:39;5.00;;;3.90;;
11807;SDS011;5961;42.640;23.380;2022-08-04T16:13:08;4.28;;;3.88;;